createdAt,value
2023-04-08T00:01:39.561Z,3
2023-04-08T00:04:41.520Z,2.8
2023-04-08T00:07:43.527Z,2.8
2023-04-08T00:10:45.389Z,2.4
2023-04-08T00:13:47.349Z,2.4
2023-04-08T00:16:49.355Z,2.2
2023-04-08T00:19:51.282Z,2.3
2023-04-08T00:22:53.234Z,2
2023-04-08T00:25:55.220Z,2.2
2023-04-08T00:28:57.184Z,1.9
2023-04-08T00:31:59.132Z,2.5
2023-04-08T00:35:01.111Z,2.5
2023-04-08T00:38:03.071Z,2.3
2023-04-08T00:41:05.218Z,2.4
2023-04-08T00:44:06.972Z,2.7
2023-04-08T00:47:08.926Z,3
2023-04-08T00:50:10.899Z,3.2
2023-04-08T00:53:12.903Z,2.8
2023-04-08T00:56:14.887Z,2.7
2023-04-08T00:59:16.845Z,2.6
2023-04-08T01:02:18.977Z,2.8
2023-04-08T01:05:20.779Z,3.3
2023-04-08T01:08:22.752Z,3.4
2023-04-08T01:11:24.734Z,3.8
2023-04-08T01:14:26.667Z,3.5
2023-04-08T01:17:28.688Z,3.6
2023-04-08T01:20:30.602Z,3.8
2023-04-08T01:23:32.573Z,3.8
2023-04-08T01:26:34.561Z,3.6
2023-04-08T01:29:36.506Z,3.6
2023-04-08T01:32:38.486Z,3.6
2023-04-08T01:35:40.448Z,3.8
2023-04-08T01:38:42.384Z,3.7
2023-04-08T01:41:44.384Z,4.1
2023-04-08T01:44:46.328Z,4
2023-04-08T01:47:48.392Z,4.4
2023-04-08T01:50:50.257Z,4
2023-04-08T01:53:52.209Z,3.9
2023-04-08T01:56:54.182Z,4
2023-04-08T01:59:56.116Z,4.5
2023-04-08T02:02:58.199Z,4.4
2023-04-08T02:06:00.104Z,4
2023-04-08T02:09:02.008Z,4.1
2023-04-08T02:12:03.978Z,3.3
2023-04-08T02:15:05.916Z,3.8
2023-04-08T02:18:07.967Z,3.8
2023-04-08T02:21:09.831Z,4.7
2023-04-08T02:24:11.791Z,4.8
2023-04-08T02:27:13.863Z,3.9
2023-04-08T02:30:15.779Z,4.9
2023-04-08T02:33:17.726Z,5.1
2023-04-08T02:36:19.698Z,5.8
2023-04-08T02:39:21.629Z,5.7
2023-04-08T02:42:23.646Z,5.7
2023-04-08T02:45:25.640Z,6
2023-04-08T02:48:27.555Z,5.8
2023-04-08T02:51:29.517Z,5.9
2023-04-08T02:54:31.475Z,6.9
2023-04-08T02:57:33.446Z,6.2
2023-04-08T03:00:35.410Z,5.8
2023-04-08T03:03:37.415Z,6.2
2023-04-08T03:06:39.357Z,6.9
2023-04-08T03:09:41.308Z,6.7
2023-04-08T03:12:43.290Z,7.1
2023-04-08T03:15:45.240Z,7.4
2023-04-08T03:18:47.182Z,7.1
2023-04-08T03:21:49.138Z,7.3
2023-04-08T03:24:51.130Z,7.4
2023-04-08T03:27:53.028Z,8.3
2023-04-08T03:30:54.991Z,8.3
2023-04-08T03:33:56.940Z,8
2023-04-08T03:36:58.905Z,7.7
2023-04-08T03:40:00.868Z,7.9
2023-04-08T03:43:02.827Z,8.1
2023-04-08T03:46:04.846Z,7.8
2023-04-08T03:49:06.733Z,9.5
2023-04-08T03:52:08.716Z,9
2023-04-08T03:55:10.647Z,8.4
2023-04-08T03:58:12.601Z,8.7
2023-04-08T04:01:14.587Z,9
2023-04-08T04:04:16.801Z,9.3
2023-04-08T04:07:18.511Z,9
2023-04-08T04:10:20.428Z,8
2023-04-08T04:13:22.404Z,9.3
2023-04-08T04:16:24.393Z,9
2023-04-08T04:19:26.318Z,8.4
2023-04-08T04:22:28.265Z,8.7
2023-04-08T04:25:30.257Z,8.8
2023-04-08T04:28:32.210Z,8.2
2023-04-08T04:31:34.243Z,9.1
2023-04-08T04:34:36.130Z,8.6
2023-04-08T04:37:38.089Z,8.7
2023-04-08T04:40:40.046Z,9.5
2023-04-08T04:43:42.013Z,9.4
2023-04-08T04:46:44.022Z,8.4
2023-04-08T04:49:45.948Z,8.4
2023-04-08T04:52:47.868Z,8.6
2023-04-08T04:55:49.861Z,9
2023-04-08T04:58:52.087Z,9.1
2023-04-08T05:01:53.814Z,9.9
2023-04-08T05:04:55.746Z,8.6
2023-04-08T05:07:57.650Z,7.7
2023-04-08T05:10:59.645Z,8
2023-04-08T05:14:01.584Z,8.5
2023-04-08T05:17:03.523Z,8.6
2023-04-08T05:20:05.478Z,8.3
2023-04-08T05:23:07.442Z,7.9
2023-04-08T05:26:09.403Z,8.6
2023-04-08T05:29:11.364Z,8.6
2023-04-08T05:32:13.367Z,8.2
2023-04-08T05:35:15.321Z,9.6
2023-04-08T05:38:17.250Z,9
2023-04-08T05:41:19.213Z,8.3
2023-04-08T05:44:21.161Z,8.6
2023-04-08T05:47:23.184Z,7.7
2023-04-08T05:50:25.130Z,8.8
2023-04-08T05:53:27.089Z,8
2023-04-08T05:56:29.059Z,8.5
2023-04-08T05:59:31.008Z,8.6
2023-04-08T06:02:33.096Z,7.9
2023-04-08T06:05:34.944Z,8.5
2023-04-08T06:08:36.946Z,7.9
2023-04-08T06:11:38.913Z,8.6
2023-04-08T06:14:40.902Z,8.4
2023-04-08T06:17:42.879Z,7.4
2023-04-08T06:20:44.776Z,8.4
2023-04-08T06:23:46.762Z,7.7
2023-04-08T06:26:48.699Z,7.9
2023-04-08T06:29:50.701Z,7.8
2023-04-08T06:32:52.693Z,8.3
2023-04-08T06:35:54.608Z,8.2
2023-04-08T06:38:56.578Z,8.4
2023-04-08T06:41:58.535Z,7.9
2023-04-08T06:45:00.496Z,6.9
2023-04-08T06:48:02.484Z,7.5
2023-04-08T06:51:04.423Z,7.6
2023-04-08T06:54:06.424Z,7
2023-04-08T06:57:08.347Z,7.1
2023-04-08T07:00:10.309Z,7.5
2023-04-08T07:03:12.533Z,8.2
2023-04-08T07:06:14.407Z,7.6
2023-04-08T07:09:16.427Z,7.4
2023-04-08T07:12:18.659Z,8.4
2023-04-08T07:15:20.371Z,8.6
2023-04-08T07:18:22.307Z,8.6
2023-04-08T07:21:24.287Z,8
2023-04-08T07:24:26.239Z,7.5
2023-04-08T07:27:28.209Z,7.7
2023-04-08T07:30:30.171Z,7.6
2023-04-08T07:33:32.115Z,6.8
2023-04-08T07:36:34.079Z,7.5
2023-04-08T07:39:36.045Z,7.5
2023-04-08T07:42:39.703Z,6.3
2023-04-08T07:45:39.943Z,8
2023-04-08T07:48:41.916Z,7.5
2023-04-08T07:51:44.023Z,7.7
2023-04-08T07:54:45.917Z,6.8
2023-04-08T07:57:47.844Z,6.8
2023-04-08T08:00:49.797Z,7.7
2023-04-08T08:03:52.788Z,8.1
2023-04-08T08:06:53.735Z,6.8
2023-04-08T08:09:55.686Z,7.4
2023-04-08T08:12:57.706Z,6.8
2023-04-08T08:15:59.716Z,8.2
2023-04-08T08:19:01.684Z,8.3
2023-04-08T08:22:03.569Z,7.7
2023-04-08T08:25:05.534Z,7.4
2023-04-08T08:28:07.492Z,7.5
2023-04-08T08:31:09.478Z,7.8
2023-04-08T08:34:11.464Z,8.4
2023-04-08T08:37:13.465Z,6.7
2023-04-08T08:40:15.441Z,7.1
2023-04-08T08:43:17.409Z,8.8
2023-04-08T08:46:19.501Z,8.5
2023-04-08T08:49:21.355Z,8.1
2023-04-08T08:52:23.277Z,7.5
2023-04-08T08:58:27.214Z,8.5
2023-04-08T09:01:29.210Z,8.2
2023-04-08T09:04:31.175Z,8.8
2023-04-08T09:07:33.140Z,9.1
2023-04-08T09:10:35.104Z,8.8
2023-04-08T09:13:37.079Z,7.9
2023-04-08T09:16:39.120Z,8.8
2023-04-08T09:19:41.015Z,8.5
2023-04-08T09:22:42.951Z,8
2023-04-08T09:25:44.992Z,8
2023-04-08T09:28:46.925Z,8.3
2023-04-08T09:31:48.938Z,8.3
2023-04-08T09:34:50.830Z,6.7
2023-04-08T09:37:52.831Z,7.5
2023-04-08T09:40:54.776Z,7.5
2023-04-08T09:43:56.747Z,6.9
2023-04-08T09:46:58.717Z,6.9
2023-04-08T09:50:00.807Z,7.2
2023-04-08T09:53:02.631Z,6.9
2023-04-08T09:56:04.578Z,7.2
2023-04-08T09:59:06.933Z,5.8
2023-04-08T10:02:08.554Z,5.9
2023-04-08T10:05:10.527Z,5.4
2023-04-08T10:08:12.453Z,5.7
2023-04-08T10:11:14.570Z,6.7
2023-04-08T10:14:16.396Z,5.6
2023-04-08T10:17:18.347Z,6.2
2023-04-08T10:20:20.324Z,5.7
2023-04-08T10:23:22.282Z,6.1
2023-04-08T10:26:24.241Z,6
2023-04-08T10:29:26.207Z,6.3
2023-04-08T10:32:28.196Z,6.4
2023-04-08T10:35:30.157Z,5.9
2023-04-08T10:38:32.105Z,5.6
2023-04-08T10:41:34.058Z,5.2
2023-04-08T10:44:36.046Z,4.3
2023-04-08T10:47:38.031Z,5.8
2023-04-08T10:50:39.957Z,5.8
2023-04-08T10:53:41.910Z,5.1
2023-04-08T10:56:43.866Z,5.4
2023-04-08T10:59:45.839Z,5
2023-04-08T11:02:47.868Z,5.3
2023-04-08T11:05:49.769Z,5.7
2023-04-08T11:08:51.717Z,5.5
2023-04-08T11:11:53.696Z,5.7
2023-04-08T11:14:55.651Z,5.7
2023-04-08T11:17:57.710Z,4.8
2023-04-08T11:21:00.294Z,5.4
2023-04-08T11:24:01.630Z,5.9
2023-04-08T11:27:03.598Z,5.6
2023-04-08T11:30:05.551Z,5.6
2023-04-08T11:33:07.550Z,6.1
2023-04-08T11:36:09.581Z,5.6
2023-04-08T11:39:11.452Z,5.4
2023-04-08T11:42:13.413Z,5.6
2023-04-08T11:45:15.372Z,6.1
2023-04-08T11:48:17.482Z,4.9
2023-04-08T11:51:19.367Z,5.1
2023-04-08T11:54:21.331Z,5.4
2023-04-08T11:57:23.302Z,5.6
2023-04-08T12:00:25.272Z,5.9
2023-04-08T12:03:27.361Z,6.2
2023-04-08T12:06:29.929Z,5.5
2023-04-08T12:09:31.132Z,5.8
2023-04-08T12:12:33.095Z,5.6
2023-04-08T12:15:35.201Z,6.3
2023-04-08T12:18:37.156Z,5.5
2023-04-08T12:21:39.236Z,5.9
2023-04-08T12:24:41.064Z,6.1
2023-04-08T12:27:43.033Z,5.3
2023-04-08T12:30:45.040Z,5.9
2023-04-08T12:33:46.955Z,6.2
2023-04-08T12:36:48.906Z,5.6
2023-04-08T12:39:50.897Z,6.2
2023-04-08T12:42:52.863Z,6.1
2023-04-08T12:45:54.896Z,5.9
2023-04-08T12:49:04.063Z,6.7
2023-04-08T12:51:58.780Z,5.6
2023-04-08T12:55:00.736Z,5.1
2023-04-08T12:58:02.684Z,5.6
2023-04-08T13:01:04.704Z,5.5
2023-04-08T13:04:06.640Z,6.2
2023-04-08T13:07:08.644Z,5.5
2023-04-08T13:10:10.585Z,5.5
2023-04-08T13:13:12.535Z,5.2
2023-04-08T13:16:14.573Z,5.4
2023-04-08T13:19:16.542Z,5.2
2023-04-08T13:22:18.483Z,6.2
2023-04-08T13:25:20.479Z,5.6
2023-04-08T13:28:22.455Z,5.6
2023-04-08T13:31:25.218Z,6.1
2023-04-08T13:34:26.376Z,6.1
2023-04-08T13:37:28.363Z,6
2023-04-08T13:40:30.359Z,6.3
2023-04-08T13:43:32.318Z,5.9
2023-04-08T13:46:34.366Z,6
2023-04-08T13:49:36.307Z,6.7
2023-04-08T13:52:38.296Z,6.2
2023-04-08T13:55:40.249Z,6.5
2023-04-08T13:58:42.352Z,7.5
2023-04-08T14:01:44.254Z,6.3
2023-04-08T14:04:46.184Z,6.3
2023-04-08T14:07:48.055Z,6.2
2023-04-08T14:10:50.041Z,6.1
2023-04-08T14:13:52.009Z,5.7
2023-04-08T14:16:54.091Z,5.2
2023-04-08T14:19:56.010Z,5.9
2023-04-08T14:22:57.973Z,5.5
2023-04-08T14:25:59.933Z,5.7
2023-04-08T14:29:01.913Z,5.6
2023-04-08T14:32:03.850Z,6.7
2023-04-08T14:35:06.610Z,6.4
2023-04-08T14:38:07.763Z,6.5
2023-04-08T14:41:09.729Z,6.2
2023-04-08T14:44:11.682Z,6.9
2023-04-08T14:47:13.737Z,6.6
2023-04-08T14:50:15.615Z,7.8
2023-04-08T14:53:17.596Z,7.6
2023-04-08T14:56:19.559Z,8.2
2023-04-08T14:59:21.694Z,8.1
2023-04-08T15:02:23.526Z,7.3
2023-04-08T15:05:25.448Z,8.8
2023-04-08T15:08:27.398Z,7.6
2023-04-08T15:11:29.392Z,9.1
2023-04-08T15:14:31.323Z,8.7
2023-04-08T15:17:33.323Z,9.1
2023-04-08T15:20:35.255Z,9.2
2023-04-08T15:23:37.197Z,8.6
2023-04-08T15:26:39.178Z,7.2
2023-04-08T15:29:41.137Z,9.5
2023-04-08T15:32:43.106Z,8.8
2023-04-08T15:35:45.097Z,8.6
2023-04-08T15:38:47.028Z,9.1
2023-04-08T15:41:48.972Z,7.7
2023-04-08T15:44:50.926Z,8.6
2023-04-08T15:47:52.952Z,8
2023-04-08T15:50:54.961Z,7.7
2023-04-08T15:53:56.789Z,8.8
2023-04-08T15:56:58.798Z,8.9
2023-04-08T16:00:00.838Z,8.2
2023-04-08T16:03:02.783Z,8
2023-04-08T16:06:04.673Z,8.1
2023-04-08T16:09:06.624Z,8.9
2023-04-08T16:12:08.654Z,8.1
2023-04-08T16:15:10.549Z,8.8
2023-04-08T16:18:12.514Z,8.9
2023-04-08T16:21:14.460Z,8.2
2023-04-08T16:24:16.405Z,8.9
2023-04-08T16:27:18.380Z,9.1
2023-04-08T16:30:20.451Z,9.1
2023-04-08T16:33:22.284Z,8
2023-04-08T16:36:24.235Z,9.1
2023-04-08T16:39:26.167Z,9.3
2023-04-08T16:42:28.196Z,10.1
2023-04-08T16:45:30.219Z,10.2
2023-04-08T16:48:32.113Z,9.6
2023-04-08T16:51:34.082Z,8.7
2023-04-08T16:54:36.040Z,8.9
2023-04-08T16:57:38.006Z,8.3
2023-04-08T17:00:39.976Z,8.6
2023-04-08T17:03:41.972Z,7.7
2023-04-08T17:06:43.882Z,7.4
2023-04-08T17:09:45.838Z,7
2023-04-08T17:12:47.803Z,7.1
2023-04-08T17:15:49.761Z,5.8
2023-04-08T17:18:51.966Z,5.3
2023-04-08T17:21:53.706Z,5.2
2023-04-08T17:24:55.660Z,5.2
2023-04-08T17:27:57.614Z,5.2
2023-04-08T17:30:59.566Z,5
2023-04-08T17:34:01.535Z,4.2
2023-04-08T17:37:03.505Z,3.9
2023-04-08T17:40:05.483Z,3.5
2023-04-08T17:43:07.424Z,3.5
2023-04-08T17:46:09.412Z,3.3
2023-04-08T17:49:11.372Z,3.5
2023-04-08T17:52:13.322Z,2.9
2023-04-08T17:55:15.288Z,2.8
2023-04-08T17:58:18.857Z,3
2023-04-08T18:01:19.277Z,3.2
2023-04-08T18:04:21.228Z,3
2023-04-08T18:07:23.113Z,3.3
2023-04-08T18:10:25.064Z,3.6
2023-04-08T18:13:27.021Z,2.9
2023-04-08T18:16:29.023Z,3.2
2023-04-08T18:19:30.951Z,2.8
2023-04-08T18:22:32.909Z,3.3
2023-04-08T18:25:34.860Z,3.4
2023-04-08T18:28:36.812Z,3.3
2023-04-08T18:31:38.776Z,3.6
2023-04-08T18:34:40.737Z,3.9
2023-04-08T18:37:42.692Z,3.3
2023-04-08T18:40:44.649Z,3.3
2023-04-08T18:43:46.601Z,3.4
2023-04-08T18:46:48.593Z,2.8
2023-04-08T18:49:50.531Z,3.3
2023-04-08T18:52:52.496Z,3.9
2023-04-08T18:55:54.455Z,3.3
2023-04-08T18:58:56.410Z,3.6
2023-04-08T19:01:58.457Z,3.5
2023-04-08T19:05:00.336Z,3.1
2023-04-08T19:08:02.304Z,3.2
2023-04-08T19:11:04.283Z,3.1
2023-04-08T19:14:06.218Z,3.2
2023-04-08T19:17:08.278Z,3.3
2023-04-08T19:20:10.144Z,3.8
2023-04-08T19:23:12.098Z,3.8
2023-04-08T19:26:14.064Z,3.8
2023-04-08T19:29:16.044Z,3.9
2023-04-08T19:32:18.020Z,3.7
2023-04-08T19:35:19.930Z,3.6
2023-04-08T19:38:21.914Z,4.5
2023-04-08T19:41:23.858Z,3.8
2023-04-08T19:44:25.848Z,3.7
2023-04-08T19:47:27.792Z,6.2
2023-04-08T19:50:29.734Z,4.5
2023-04-08T19:53:31.699Z,4.9
2023-04-08T19:56:33.655Z,4.6
2023-04-08T19:59:35.708Z,4.8
2023-04-08T20:02:37.889Z,4.8
2023-04-08T20:05:39.541Z,4.8
2023-04-08T20:08:41.513Z,5
2023-04-08T20:11:43.484Z,5.2
2023-04-08T20:14:45.433Z,4.8
2023-04-08T20:17:47.445Z,4.9
2023-04-08T20:20:49.504Z,4.7
2023-04-08T20:23:51.355Z,5
2023-04-08T20:26:53.326Z,5
2023-04-08T20:29:55.416Z,5.1
2023-04-08T20:32:57.388Z,5.5
2023-04-08T20:35:59.237Z,5.8
2023-04-08T20:39:01.179Z,5
2023-04-08T20:42:03.156Z,4.6
2023-04-08T20:45:05.103Z,5
2023-04-08T20:48:07.156Z,5.5
2023-04-08T20:51:09.026Z,6.4
2023-04-08T20:54:10.986Z,5.3
2023-04-08T20:57:12.969Z,6.1
2023-04-08T21:00:14.929Z,5.8
2023-04-08T21:03:17.073Z,5.6
2023-04-08T21:06:18.868Z,6.7
2023-04-08T21:09:20.864Z,6.4
2023-04-08T21:12:23.039Z,6.8
2023-04-08T21:15:24.785Z,6.2
2023-04-08T21:18:26.758Z,6.8
2023-04-08T21:21:28.746Z,6.8
2023-04-08T21:24:30.723Z,6.6
2023-04-08T21:27:32.685Z,6.9
2023-04-08T21:30:34.650Z,5.7
2023-04-08T21:33:36.628Z,6.5
2023-04-08T21:36:38.588Z,6.7
2023-04-08T21:39:40.541Z,6.3
2023-04-08T21:42:42.509Z,6.3
2023-04-08T21:45:44.499Z,6.1
2023-04-08T21:48:46.456Z,6.1
2023-04-08T21:51:48.428Z,6
2023-04-08T21:54:50.388Z,5.2
2023-04-08T21:57:52.435Z,5.1
2023-04-08T22:00:54.353Z,6.2
2023-04-08T22:03:56.379Z,5.4
2023-04-08T22:06:58.330Z,5.6
2023-04-08T22:10:01.865Z,6
2023-04-08T22:13:02.296Z,5.7
2023-04-08T22:16:04.255Z,6.1
2023-04-08T22:19:06.223Z,6.7
2023-04-08T22:22:08.201Z,6.8
2023-04-08T22:25:10.156Z,7.1
2023-04-08T22:28:12.148Z,6.8
2023-04-08T22:31:14.102Z,6.3
2023-04-08T22:34:16.044Z,5.9
2023-04-08T22:37:18.095Z,5.5
2023-04-08T22:40:20.098Z,6.3
2023-04-08T22:43:22.064Z,6.5
2023-04-08T22:46:24.101Z,6.4
2023-04-08T22:49:25.982Z,6.4
2023-04-08T22:52:27.963Z,6.3
2023-04-08T22:55:29.931Z,6.6
2023-04-08T22:58:31.878Z,5.9
2023-04-08T23:01:33.856Z,6.2
2023-04-08T23:04:35.819Z,7.1
2023-04-08T23:07:37.749Z,6.2
2023-04-08T23:10:39.723Z,6.1
2023-04-08T23:13:41.682Z,6.4
2023-04-08T23:16:43.649Z,6.4
2023-04-08T23:19:45.607Z,6.1
2023-04-08T23:22:47.557Z,6.4
2023-04-08T23:25:49.519Z,5.6
2023-04-08T23:28:51.618Z,6.9
2023-04-08T23:31:53.490Z,7
2023-04-08T23:34:55.419Z,6.4
2023-04-08T23:37:57.404Z,6.1
2023-04-08T23:40:59.362Z,5.9
2023-04-08T23:44:01.353Z,6.1
2023-04-08T23:47:03.399Z,6.7
2023-04-08T23:50:05.319Z,7.7
2023-04-08T23:53:07.285Z,6.9
2023-04-08T23:56:09.255Z,6.4
2023-04-08T23:59:11.207Z,7
